This is the latest recevied weather packets stored in our database for station/object KJ4UBX-11. If no packets are shown the sender has not sent any weather packets the latest 1 day(s).
| Time | Temp. | Humidity | Pressure | Rain* | Wind** | Luminosity | Snow |
|---|---|---|---|---|---|---|---|
| 1778054858 | 15.56° C | 75% | 1007.3 hPa | - | - | - | - |
| 1778054275 | 15.56° C | 75% | 1007.3 hPa | - | - | - | - |
| 1778053691 | 15.56° C | 74% | 1007.3 hPa | - | - | - | - |
| 1778052524 | 15.56° C | 74% | 1007.2 hPa | - | - | - | - |
| 1778051944 | 16.11° C | 73% | 1007.2 hPa | - | - | - | - |
| 1778051356 | 16.11° C | 73% | 1007.1 hPa | - | - | - | - |
| 1778050773 | 16.11° C | 71% | 1006.9 hPa | - | - | - | - |
| 1778050190 | 16.11° C | 73% | 1006.9 hPa | - | - | - | - |
| 1778049607 | 16.11° C | 71% | 1006.8 hPa | - | - | - | - |
| 1778049023 | 15.56° C | 74% | 1006.9 hPa | - | - | - | - |
| 1778046690 | 16.11° C | 73% | 1006.8 hPa | - | - | - | - |
| 1778046107 | 16.11° C | 74% | 1006.9 hPa | - | - | - | - |
| 1778045524 | 16.11° C | 73% | 1006.6 hPa | - | - | - | - |
| 1778044941 | 16.11° C | 74% | 1006.7 hPa | - | - | - | - |
| 1778044359 | 15.56° C | 74% | 1006.7 hPa | - | - | - | - |
| 1778043190 | 15.56° C | 75% | 1006.8 hPa | - | - | - | - |
| 1778042607 | 15° C | 77% | 1006.9 hPa | - | - | - | - |
| 1778041441 | 15.56° C | 75% | 1007 hPa | - | - | - | - |
| 1778040859 | 15.56° C | 74% | 1006.9 hPa | - | - | - | - |
| 1778039692 | 15.56° C | 74% | 1006.5 hPa | - | - | - | - |
| 1778038526 | 15.56° C | 73% | 1006.6 hPa | - | - | - | - |
| 1778037943 | 15.56° C | 72% | 1006.5 hPa | - | - | - | - |
| 1778037360 | 16.11° C | 71% | 1006.5 hPa | - | - | - | - |
| 1778036778 | 16.67° C | 68% | 1006.5 hPa | - | - | - | - |
| 1778035613 | 17.22° C | 67% | 1006.6 hPa | - | - | - | - |
* Rain since midnight (hover to see other rain measurements)
** Current wind speed in m/s (hover to see current wind gust speed)